sensor_id;sensor_type;location;lat;lon;timestamp;pressure;altitude;pressure_sealevel;temperature;humidity
63347;BME280;49472;49.880;8.650;2023-02-11T00:00:56;102120.94;;;7.71;nan
63347;BME280;49472;49.880;8.650;2023-02-11T00:03:22;102116.41;;;7.51;nan
63347;BME280;49472;49.880;8.650;2023-02-11T00:05:58;102123.84;;;7.26;nan
63347;BME280;49472;49.880;8.650;2023-02-11T00:08:23;102122.81;;;7.33;nan
63347;BME280;49472;49.880;8.650;2023-02-11T00:10:53;102134.19;;;7.18;nan
63347;BME280;49472;49.880;8.650;2023-02-11T00:13:19;102121.22;;;7.60;nan
63347;BME280;49472;49.880;8.650;2023-02-11T00:15:44;102121.69;;;7.74;nan
63347;BME280;49472;49.880;8.650;2023-02-11T00:18:10;102130.16;;;7.44;nan
63347;BME280;49472;49.880;8.650;2023-02-11T00:20:37;102138.41;;;7.19;nan
63347;BME280;49472;49.880;8.650;2023-02-11T00:23:03;102139.66;;;7.68;nan
63347;BME280;49472;49.880;8.650;2023-02-11T00:25:28;102139.31;;;7.51;nan
63347;BME280;49472;49.880;8.650;2023-02-11T00:27:53;102131.78;;;7.77;nan
63347;BME280;49472;49.880;8.650;2023-02-11T00:30:18;102137.09;;;7.70;nan
63347;BME280;49472;49.880;8.650;2023-02-11T00:32:44;102135.06;;;7.50;nan
63347;BME280;49472;49.880;8.650;2023-02-11T00:35:09;102124.03;;;7.82;nan
63347;BME280;49472;49.880;8.650;2023-02-11T00:37:34;102122.50;;;8.06;nan
63347;BME280;49472;49.880;8.650;2023-02-11T00:40:02;102118.22;;;7.77;nan
63347;BME280;49472;49.880;8.650;2023-02-11T00:42:30;102117.41;;;7.76;nan
63347;BME280;49472;49.880;8.650;2023-02-11T00:44:55;102121.13;;;7.63;nan
63347;BME280;49472;49.880;8.650;2023-02-11T00:47:20;102112.53;;;7.69;nan
63347;BME280;49472;49.880;8.650;2023-02-11T00:49:46;102119.56;;;7.59;nan
63347;BME280;49472;49.880;8.650;2023-02-11T00:52:11;102109.63;;;7.50;nan
63347;BME280;49472;49.880;8.650;2023-02-11T00:54:36;102108.41;;;7.63;nan
63347;BME280;49472;49.880;8.650;2023-02-11T00:57:02;102099.31;;;7.86;nan
63347;BME280;49472;49.880;8.650;2023-02-11T00:59:27;102101.13;;;7.82;nan
63347;BME280;49472;49.880;8.650;2023-02-11T01:01:52;102101.63;;;7.93;nan
63347;BME280;49472;49.880;8.650;2023-02-11T01:04:18;102100.63;;;7.69;nan
63347;BME280;49472;49.880;8.650;2023-02-11T01:06:43;102098.09;;;7.99;nan
63347;BME280;49472;49.880;8.650;2023-02-11T01:09:08;102091.13;;;7.74;nan
63347;BME280;49472;49.880;8.650;2023-02-11T01:11:34;102083.59;;;7.71;nan
63347;BME280;49472;49.880;8.650;2023-02-11T01:13:59;102086.28;;;7.65;nan
63347;BME280;49472;49.880;8.650;2023-02-11T01:16:24;102092.00;;;7.73;nan
63347;BME280;49472;49.880;8.650;2023-02-11T01:18:50;102098.09;;;7.36;nan
63347;BME280;49472;49.880;8.650;2023-02-11T01:21:15;102088.59;;;7.74;nan
63347;BME280;49472;49.880;8.650;2023-02-11T01:23:40;102097.94;;;7.43;nan
63347;BME280;49472;49.880;8.650;2023-02-11T01:26:06;102089.66;;;7.34;nan
63347;BME280;49472;49.880;8.650;2023-02-11T01:28:32;102091.88;;;7.78;nan
63347;BME280;49472;49.880;8.650;2023-02-11T01:30:59;102082.03;;;7.66;nan
63347;BME280;49472;49.880;8.650;2023-02-11T01:33:24;102069.88;;;7.46;nan
63347;BME280;49472;49.880;8.650;2023-02-11T01:35:49;102080.47;;;7.30;nan
63347;BME280;49472;49.880;8.650;2023-02-11T01:38:21;102078.69;;;7.32;nan
63347;BME280;49472;49.880;8.650;2023-02-11T01:41:14;102071.28;;;7.56;nan
63347;BME280;49472;49.880;8.650;2023-02-11T01:43:44;102081.72;;;7.14;nan
63347;BME280;49472;49.880;8.650;2023-02-11T01:46:33;102077.75;;;7.36;nan
63347;BME280;49472;49.880;8.650;2023-02-11T01:49:05;102072.38;;;7.14;nan
63347;BME280;49472;49.880;8.650;2023-02-11T01:51:41;102061.69;;;7.34;nan
63347;BME280;49472;49.880;8.650;2023-02-11T01:54:09;102043.94;;;7.31;nan
63347;BME280;49472;49.880;8.650;2023-02-11T01:56:55;102048.91;;;7.36;nan
63347;BME280;49472;49.880;8.650;2023-02-11T02:05:14;102043.50;;;7.48;nan
63347;BME280;49472;49.880;8.650;2023-02-11T02:07:52;102029.34;;;7.69;nan
63347;BME280;49472;49.880;8.650;2023-02-11T02:10:23;102020.41;;;7.54;nan
63347;BME280;49472;49.880;8.650;2023-02-11T02:12:49;102030.72;;;7.50;nan
63347;BME280;49472;49.880;8.650;2023-02-11T02:15:19;102027.41;;;7.76;nan
63347;BME280;49472;49.880;8.650;2023-02-11T02:26:28;102007.19;;;7.42;nan
63347;BME280;49472;49.880;8.650;2023-02-11T02:31:57;101997.47;;;7.56;nan
63347;BME280;49472;49.880;8.650;2023-02-11T02:34:43;101992.75;;;7.42;nan
63347;BME280;49472;49.880;8.650;2023-02-11T02:37:20;101983.16;;;7.52;nan
63347;BME280;49472;49.880;8.650;2023-02-11T02:39:49;101996.72;;;7.23;nan
63347;BME280;49472;49.880;8.650;2023-02-11T02:42:15;101993.25;;;7.25;nan
63347;BME280;49472;49.880;8.650;2023-02-11T02:44:49;102000.03;;;7.56;nan
63347;BME280;49472;49.880;8.650;2023-02-11T02:47:15;102015.25;;;7.26;nan
63347;BME280;49472;49.880;8.650;2023-02-11T02:49:40;101993.59;;;7.43;nan
63347;BME280;49472;49.880;8.650;2023-02-11T02:52:33;102005.63;;;7.67;nan
63347;BME280;49472;49.880;8.650;2023-02-11T02:55:05;102007.81;;;7.79;nan
63347;BME280;49472;49.880;8.650;2023-02-11T02:57:41;102015.19;;;7.89;nan
63347;BME280;49472;49.880;8.650;2023-02-11T03:08:33;102038.19;;;7.56;nan
63347;BME280;49472;49.880;8.650;2023-02-11T03:11:02;102049.34;;;7.52;nan
63347;BME280;49472;49.880;8.650;2023-02-11T03:13:32;102020.00;;;7.68;nan
63347;BME280;49472;49.880;8.650;2023-02-11T03:16:03;102027.09;;;7.58;nan
63347;BME280;49472;49.880;8.650;2023-02-11T03:18:34;102016.41;;;7.75;nan
63347;BME280;49472;49.880;8.650;2023-02-11T03:21:01;102018.50;;;7.31;nan
63347;BME280;49472;49.880;8.650;2023-02-11T03:23:34;102005.44;;;7.44;nan
63347;BME280;49472;49.880;8.650;2023-02-11T03:26:09;102012.94;;;7.78;nan
63347;BME280;49472;49.880;8.650;2023-02-11T03:29:00;102010.63;;;7.70;nan
63347;BME280;49472;49.880;8.650;2023-02-11T03:31:42;102003.28;;;7.89;nan
63347;BME280;49472;49.880;8.650;2023-02-11T03:34:14;102004.09;;;7.90;nan
63347;BME280;49472;49.880;8.650;2023-02-11T03:36:51;102008.28;;;7.63;nan
63347;BME280;49472;49.880;8.650;2023-02-11T03:39:22;102028.38;;;7.42;nan
63347;BME280;49472;49.880;8.650;2023-02-11T03:41:51;102012.25;;;7.43;nan
63347;BME280;49472;49.880;8.650;2023-02-11T03:44:19;102002.19;;;7.38;nan
63347;BME280;49472;49.880;8.650;2023-02-11T03:46:49;102000.06;;;7.53;nan
63347;BME280;49472;49.880;8.650;2023-02-11T03:49:18;101984.03;;;7.51;nan
63347;BME280;49472;49.880;8.650;2023-02-11T03:51:46;101990.56;;;7.30;nan
63347;BME280;49472;49.880;8.650;2023-02-11T03:54:17;101978.06;;;7.52;nan
63347;BME280;49472;49.880;8.650;2023-02-11T03:56:49;101975.22;;;7.33;nan
63347;BME280;49472;49.880;8.650;2023-02-11T03:59:15;101967.22;;;7.15;nan
63347;BME280;49472;49.880;8.650;2023-02-11T04:01:41;101943.19;;;7.26;nan
63347;BME280;49472;49.880;8.650;2023-02-11T04:04:06;101946.25;;;7.07;nan
63347;BME280;49472;49.880;8.650;2023-02-11T04:06:31;101933.59;;;7.04;nan
63347;BME280;49472;49.880;8.650;2023-02-11T04:08:57;101930.31;;;7.01;nan
63347;BME280;49472;49.880;8.650;2023-02-11T04:11:22;101935.19;;;7.08;nan
63347;BME280;49472;49.880;8.650;2023-02-11T04:13:47;101924.84;;;7.14;nan
63347;BME280;49472;49.880;8.650;2023-02-11T04:16:13;101920.28;;;7.26;nan
63347;BME280;49472;49.880;8.650;2023-02-11T04:18:38;101916.06;;;7.54;nan
63347;BME280;49472;49.880;8.650;2023-02-11T04:21:03;101927.41;;;7.43;nan
63347;BME280;49472;49.880;8.650;2023-02-11T04:23:29;101935.22;;;7.38;nan
63347;BME280;49472;49.880;8.650;2023-02-11T04:25:55;101934.56;;;7.30;nan
63347;BME280;49472;49.880;8.650;2023-02-11T04:28:21;101937.38;;;7.50;nan
63347;BME280;49472;49.880;8.650;2023-02-11T04:30:48;101946.09;;;7.71;nan
63347;BME280;49472;49.880;8.650;2023-02-11T04:33:14;101950.03;;;7.53;nan
63347;BME280;49472;49.880;8.650;2023-02-11T04:35:39;101943.34;;;7.77;nan
63347;BME280;49472;49.880;8.650;2023-02-11T04:38:05;101957.66;;;7.53;nan
63347;BME280;49472;49.880;8.650;2023-02-11T04:40:30;101962.75;;;7.53;nan
63347;BME280;49472;49.880;8.650;2023-02-11T04:42:55;101969.25;;;7.64;nan
63347;BME280;49472;49.880;8.650;2023-02-11T04:45:21;101975.19;;;7.63;nan
63347;BME280;49472;49.880;8.650;2023-02-11T04:47:46;101970.47;;;7.78;nan
63347;BME280;49472;49.880;8.650;2023-02-11T04:50:11;101967.78;;;7.83;nan
63347;BME280;49472;49.880;8.650;2023-02-11T04:52:37;101978.53;;;7.93;nan
63347;BME280;49472;49.880;8.650;2023-02-11T04:55:02;101982.88;;;8.17;nan
63347;BME280;49472;49.880;8.650;2023-02-11T04:57:28;101978.22;;;7.75;nan
63347;BME280;49472;49.880;8.650;2023-02-11T04:59:53;101975.03;;;7.97;nan
63347;BME280;49472;49.880;8.650;2023-02-11T05:02:18;101967.16;;;7.76;nan
63347;BME280;49472;49.880;8.650;2023-02-11T05:04:44;101959.66;;;8.00;nan
63347;BME280;49472;49.880;8.650;2023-02-11T05:07:09;101954.66;;;7.69;nan
63347;BME280;49472;49.880;8.650;2023-02-11T05:09:34;101957.84;;;7.75;nan
63347;BME280;49472;49.880;8.650;2023-02-11T05:12:00;101950.41;;;7.69;nan
63347;BME280;49472;49.880;8.650;2023-02-11T05:14:25;101954.31;;;7.51;nan
63347;BME280;49472;49.880;8.650;2023-02-11T05:16:50;101943.47;;;7.45;nan
63347;BME280;49472;49.880;8.650;2023-02-11T05:19:16;101939.53;;;7.64;nan
63347;BME280;49472;49.880;8.650;2023-02-11T05:21:41;101940.06;;;7.46;nan
63347;BME280;49472;49.880;8.650;2023-02-11T05:24:07;101925.31;;;7.57;nan
63347;BME280;49472;49.880;8.650;2023-02-11T05:26:34;101946.78;;;7.18;nan
63347;BME280;49472;49.880;8.650;2023-02-11T05:28:59;101925.84;;;7.38;nan
63347;BME280;49472;49.880;8.650;2023-02-11T05:31:25;101933.69;;;7.60;nan
63347;BME280;49472;49.880;8.650;2023-02-11T05:33:51;101925.03;;;7.38;nan
63347;BME280;49472;49.880;8.650;2023-02-11T05:36:16;101926.25;;;7.53;nan
63347;BME280;49472;49.880;8.650;2023-02-11T05:38:42;101930.03;;;7.69;nan
63347;BME280;49472;49.880;8.650;2023-02-11T05:41:09;101933.75;;;7.59;nan
63347;BME280;49472;49.880;8.650;2023-02-11T05:43:35;101933.53;;;7.37;nan
63347;BME280;49472;49.880;8.650;2023-02-11T05:46:02;101920.69;;;7.70;nan
63347;BME280;49472;49.880;8.650;2023-02-11T05:48:27;101923.22;;;7.70;nan
63347;BME280;49472;49.880;8.650;2023-02-11T05:50:52;101925.50;;;7.51;nan
63347;BME280;49472;49.880;8.650;2023-02-11T05:53:18;101936.03;;;7.38;nan
63347;BME280;49472;49.880;8.650;2023-02-11T05:55:43;101938.22;;;7.79;nan
63347;BME280;49472;49.880;8.650;2023-02-11T05:58:08;101942.56;;;7.75;nan
63347;BME280;49472;49.880;8.650;2023-02-11T06:00:34;101939.09;;;7.50;nan
63347;BME280;49472;49.880;8.650;2023-02-11T06:03:00;101939.50;;;7.36;nan
63347;BME280;49472;49.880;8.650;2023-02-11T06:05:26;101933.84;;;7.26;nan
63347;BME280;49472;49.880;8.650;2023-02-11T06:07:51;101945.31;;;7.39;nan
63347;BME280;49472;49.880;8.650;2023-02-11T06:10:17;101953.41;;;7.24;nan
63347;BME280;49472;49.880;8.650;2023-02-11T06:12:43;101940.44;;;7.33;nan
63347;BME280;49472;49.880;8.650;2023-02-11T06:15:10;101949.81;;;7.61;nan
63347;BME280;49472;49.880;8.650;2023-02-11T06:17:35;101948.19;;;7.29;nan
63347;BME280;49472;49.880;8.650;2023-02-11T06:20:04;101957.69;;;7.22;nan
63347;BME280;49472;49.880;8.650;2023-02-11T06:22:30;101960.50;;;7.13;nan
63347;BME280;49472;49.880;8.650;2023-02-11T06:24:55;101950.72;;;7.29;nan
63347;BME280;49472;49.880;8.650;2023-02-11T06:27:20;101953.69;;;7.15;nan
63347;BME280;49472;49.880;8.650;2023-02-11T06:29:46;101954.50;;;7.15;nan
63347;BME280;49472;49.880;8.650;2023-02-11T06:32:12;101960.66;;;7.07;nan
63347;BME280;49472;49.880;8.650;2023-02-11T06:34:37;101969.41;;;6.96;nan
63347;BME280;49472;49.880;8.650;2023-02-11T06:37:03;101985.50;;;6.97;nan
63347;BME280;49472;49.880;8.650;2023-02-11T06:39:28;101966.75;;;7.01;nan
63347;BME280;49472;49.880;8.650;2023-02-11T06:41:53;101962.66;;;6.95;nan
63347;BME280;49472;49.880;8.650;2023-02-11T06:44:19;101950.56;;;7.04;nan
63347;BME280;49472;49.880;8.650;2023-02-11T06:46:44;101951.50;;;7.01;nan
63347;BME280;49472;49.880;8.650;2023-02-11T06:49:09;101954.88;;;7.02;nan
63347;BME280;49472;49.880;8.650;2023-02-11T06:51:35;101961.06;;;6.91;nan
63347;BME280;49472;49.880;8.650;2023-02-11T06:54:00;101955.91;;;6.94;nan
63347;BME280;49472;49.880;8.650;2023-02-11T06:56:26;101958.44;;;6.94;nan
63347;BME280;49472;49.880;8.650;2023-02-11T06:58:55;101971.13;;;6.96;nan
63347;BME280;49472;49.880;8.650;2023-02-11T07:01:23;101950.34;;;7.13;nan
63347;BME280;49472;49.880;8.650;2023-02-11T07:03:49;101968.34;;;7.05;nan
63347;BME280;49472;49.880;8.650;2023-02-11T07:06:18;101972.44;;;7.11;nan
63347;BME280;49472;49.880;8.650;2023-02-11T07:08:44;101958.75;;;7.15;nan
63347;BME280;49472;49.880;8.650;2023-02-11T07:11:22;101970.97;;;7.02;nan
63347;BME280;49472;49.880;8.650;2023-02-11T07:13:51;101968.50;;;6.99;nan
63347;BME280;49472;49.880;8.650;2023-02-11T07:16:18;101954.94;;;7.00;nan
63347;BME280;49472;49.880;8.650;2023-02-11T07:18:44;101945.16;;;7.16;nan
63347;BME280;49472;49.880;8.650;2023-02-11T07:21:12;101956.13;;;7.18;nan
63347;BME280;49472;49.880;8.650;2023-02-11T07:23:38;101946.06;;;7.13;nan
63347;BME280;49472;49.880;8.650;2023-02-11T07:26:07;101953.94;;;7.35;nan
63347;BME280;49472;49.880;8.650;2023-02-11T07:28:33;101952.16;;;7.67;nan
63347;BME280;49472;49.880;8.650;2023-02-11T07:31:05;101953.59;;;7.18;nan
63347;BME280;49472;49.880;8.650;2023-02-11T07:33:30;101950.06;;;7.22;nan
63347;BME280;49472;49.880;8.650;2023-02-11T07:35:59;101966.72;;;7.03;nan
63347;BME280;49472;49.880;8.650;2023-02-11T07:38:24;101940.81;;;7.20;nan
63347;BME280;49472;49.880;8.650;2023-02-11T07:40:49;101942.59;;;7.16;nan
63347;BME280;49472;49.880;8.650;2023-02-11T07:43:15;101941.47;;;7.26;nan
63347;BME280;49472;49.880;8.650;2023-02-11T07:45:40;101940.31;;;7.38;nan
63347;BME280;49472;49.880;8.650;2023-02-11T07:48:05;101931.03;;;7.35;nan
63347;BME280;49472;49.880;8.650;2023-02-11T07:50:31;101936.47;;;7.23;nan
63347;BME280;49472;49.880;8.650;2023-02-11T07:52:56;101945.06;;;7.19;nan
63347;BME280;49472;49.880;8.650;2023-02-11T07:55:21;101942.53;;;7.49;nan
63347;BME280;49472;49.880;8.650;2023-02-11T07:57:47;101946.34;;;7.34;nan
63347;BME280;49472;49.880;8.650;2023-02-11T08:00:13;101946.88;;;7.73;nan
63347;BME280;49472;49.880;8.650;2023-02-11T08:02:38;101949.66;;;7.66;nan
63347;BME280;49472;49.880;8.650;2023-02-11T08:05:04;101964.94;;;7.36;nan
63347;BME280;49472;49.880;8.650;2023-02-11T08:07:29;101963.25;;;7.65;nan
63347;BME280;49472;49.880;8.650;2023-02-11T08:09:54;101969.94;;;7.69;nan
63347;BME280;49472;49.880;8.650;2023-02-11T08:12:20;101973.41;;;8.21;nan
63347;BME280;49472;49.880;8.650;2023-02-11T08:14:46;101987.22;;;8.14;nan
63347;BME280;49472;49.880;8.650;2023-02-11T08:17:11;101987.28;;;7.56;nan
63347;BME280;49472;49.880;8.650;2023-02-11T08:19:37;101998.66;;;7.43;nan
63347;BME280;49472;49.880;8.650;2023-02-11T08:22:03;101989.78;;;7.28;nan
63347;BME280;49472;49.880;8.650;2023-02-11T08:24:28;101986.31;;;7.60;nan
63347;BME280;49472;49.880;8.650;2023-02-11T08:26:54;101984.22;;;8.01;nan
63347;BME280;49472;49.880;8.650;2023-02-11T08:29:19;101982.44;;;7.76;nan
63347;BME280;49472;49.880;8.650;2023-02-11T08:31:46;101975.38;;;8.13;nan
63347;BME280;49472;49.880;8.650;2023-02-11T08:34:13;101996.25;;;7.97;nan
63347;BME280;49472;49.880;8.650;2023-02-11T08:36:40;101987.88;;;8.20;nan
63347;BME280;49472;49.880;8.650;2023-02-11T08:39:08;101996.00;;;8.05;nan
63347;BME280;49472;49.880;8.650;2023-02-11T08:41:36;101999.47;;;8.29;nan
63347;BME280;49472;49.880;8.650;2023-02-11T08:44:01;101999.25;;;8.37;nan
63347;BME280;49472;49.880;8.650;2023-02-11T08:46:27;102004.78;;;8.51;nan
63347;BME280;49472;49.880;8.650;2023-02-11T08:48:52;102017.50;;;8.24;nan
63347;BME280;49472;49.880;8.650;2023-02-11T08:51:20;102010.44;;;8.59;nan
63347;BME280;49472;49.880;8.650;2023-02-11T08:53:47;102027.94;;;8.45;nan
63347;BME280;49472;49.880;8.650;2023-02-11T08:56:13;102026.75;;;8.55;nan
63347;BME280;49472;49.880;8.650;2023-02-11T08:58:39;102038.16;;;8.43;nan
63347;BME280;49472;49.880;8.650;2023-02-11T09:01:17;102024.69;;;8.65;nan
63347;BME280;49472;49.880;8.650;2023-02-11T09:03:43;102027.25;;;8.38;nan
63347;BME280;49472;49.880;8.650;2023-02-11T09:06:09;102019.94;;;9.06;nan
63347;BME280;49472;49.880;8.650;2023-02-11T09:08:37;102031.91;;;8.79;nan
63347;BME280;49472;49.880;8.650;2023-02-11T09:11:02;102030.06;;;9.56;nan
63347;BME280;49472;49.880;8.650;2023-02-11T09:13:29;102025.78;;;9.56;nan
63347;BME280;49472;49.880;8.650;2023-02-11T09:15:54;102034.44;;;9.76;nan
63347;BME280;49472;49.880;8.650;2023-02-11T09:18:19;102025.72;;;9.58;nan
63347;BME280;49472;49.880;8.650;2023-02-11T09:20:45;102024.97;;;9.32;nan
63347;BME280;49472;49.880;8.650;2023-02-11T09:23:10;102023.88;;;9.15;nan
63347;BME280;49472;49.880;8.650;2023-02-11T09:25:38;102027.09;;;9.20;nan
63347;BME280;49472;49.880;8.650;2023-02-11T09:28:04;102020.78;;;9.30;nan
63347;BME280;49472;49.880;8.650;2023-02-11T09:30:30;102014.44;;;9.87;nan
63347;BME280;49472;49.880;8.650;2023-02-11T09:32:55;102016.09;;;9.88;nan
63347;BME280;49472;49.880;8.650;2023-02-11T09:35:20;102028.59;;;10.18;nan
63347;BME280;49472;49.880;8.650;2023-02-11T09:37:46;102034.38;;;9.54;nan
63347;BME280;49472;49.880;8.650;2023-02-11T09:40:14;102039.78;;;9.70;nan
63347;BME280;49472;49.880;8.650;2023-02-11T09:45:27;102043.44;;;10.08;nan
63347;BME280;49472;49.880;8.650;2023-02-11T09:50:33;102048.13;;;9.97;nan
63347;BME280;49472;49.880;8.650;2023-02-11T09:53:22;102051.28;;;10.04;nan
63347;BME280;49472;49.880;8.650;2023-02-11T09:55:51;102055.16;;;9.68;nan
63347;BME280;49472;49.880;8.650;2023-02-11T09:58:28;102055.09;;;9.70;nan
63347;BME280;49472;49.880;8.650;2023-02-11T10:06:32;102054.38;;;11.17;nan
63347;BME280;49472;49.880;8.650;2023-02-11T10:11:47;102063.47;;;10.83;nan
63347;BME280;49472;49.880;8.650;2023-02-11T10:19:38;102053.53;;;10.55;nan
63347;BME280;49472;49.880;8.650;2023-02-11T10:24:56;102048.84;;;10.67;nan
63347;BME280;49472;49.880;8.650;2023-02-11T10:27:33;102038.59;;;10.67;nan
63347;BME280;49472;49.880;8.650;2023-02-11T10:32:45;102034.91;;;11.13;nan
63347;BME280;49472;49.880;8.650;2023-02-11T10:35:16;102046.28;;;10.22;nan
63347;BME280;49472;49.880;8.650;2023-02-11T10:37:43;102034.97;;;10.50;nan
63347;BME280;49472;49.880;8.650;2023-02-11T10:40:17;102032.66;;;10.66;nan
63347;BME280;49472;49.880;8.650;2023-02-11T10:42:47;102040.66;;;10.99;nan
63347;BME280;49472;49.880;8.650;2023-02-11T10:45:51;102042.16;;;11.03;nan
63347;BME280;49472;49.880;8.650;2023-02-11T10:53:37;102039.19;;;11.52;nan
63347;BME280;49472;49.880;8.650;2023-02-11T10:56:05;102043.00;;;11.43;nan
63347;BME280;49472;49.880;8.650;2023-02-11T10:58:37;102039.25;;;11.32;nan
63347;BME280;49472;49.880;8.650;2023-02-11T11:01:15;102048.44;;;10.76;nan
63347;BME280;49472;49.880;8.650;2023-02-11T11:03:49;102037.50;;;10.52;nan
63347;BME280;49472;49.880;8.650;2023-02-11T11:06:15;102032.38;;;10.93;nan
63347;BME280;49472;49.880;8.650;2023-02-11T11:08:52;102046.19;;;10.89;nan
63347;BME280;49472;49.880;8.650;2023-02-11T11:11:21;102048.75;;;10.68;nan
63347;BME280;49472;49.880;8.650;2023-02-11T11:16:29;102038.94;;;10.37;nan
63347;BME280;49472;49.880;8.650;2023-02-11T11:24:28;102028.88;;;10.75;nan
63347;BME280;49472;49.880;8.650;2023-02-11T11:26:59;102033.28;;;10.92;nan
63347;BME280;49472;49.880;8.650;2023-02-11T11:29:33;102028.44;;;11.25;nan
63347;BME280;49472;49.880;8.650;2023-02-11T11:32:02;102026.25;;;10.76;nan
63347;BME280;49472;49.880;8.650;2023-02-11T11:34:36;102031.50;;;11.33;nan
63347;BME280;49472;49.880;8.650;2023-02-11T11:37:18;102031.47;;;10.94;nan
63347;BME280;49472;49.880;8.650;2023-02-11T11:39:51;102032.31;;;11.34;nan
63347;BME280;49472;49.880;8.650;2023-02-11T11:42:31;102028.03;;;11.72;nan
63347;BME280;49472;49.880;8.650;2023-02-11T11:45:02;102019.91;;;12.19;nan
63347;BME280;49472;49.880;8.650;2023-02-11T11:47:35;102019.16;;;11.98;nan
63347;BME280;49472;49.880;8.650;2023-02-11T11:52:55;102017.31;;;12.02;nan
63347;BME280;49472;49.880;8.650;2023-02-11T11:55:28;102018.59;;;12.10;nan
63347;BME280;49472;49.880;8.650;2023-02-11T11:57:56;102016.81;;;12.30;nan
63347;BME280;49472;49.880;8.650;2023-02-11T12:06:15;102023.19;;;12.04;nan
63347;BME280;49472;49.880;8.650;2023-02-11T12:14:07;102028.50;;;11.80;nan
63347;BME280;49472;49.880;8.650;2023-02-11T12:27:46;102007.56;;;11.91;nan
63347;BME280;49472;49.880;8.650;2023-02-11T12:33:43;102006.13;;;11.47;nan
63347;BME280;49472;49.880;8.650;2023-02-11T12:36:44;102014.34;;;11.35;nan
63347;BME280;49472;49.880;8.650;2023-02-11T12:53:59;102005.97;;;12.59;nan
63347;BME280;49472;49.880;8.650;2023-02-11T12:59:09;102004.53;;;12.36;nan
63347;BME280;49472;49.880;8.650;2023-02-11T13:01:39;101994.56;;;12.65;nan
63347;BME280;49472;49.880;8.650;2023-02-11T13:06:51;101989.75;;;12.42;nan
63347;BME280;49472;49.880;8.650;2023-02-11T13:09:27;101981.94;;;12.60;nan
63347;BME280;49472;49.880;8.650;2023-02-11T13:11:57;101986.41;;;12.57;nan
63347;BME280;49472;49.880;8.650;2023-02-11T13:14:27;101977.56;;;12.80;nan
63347;BME280;49472;49.880;8.650;2023-02-11T13:16:55;101982.88;;;12.25;nan
63347;BME280;49472;49.880;8.650;2023-02-11T13:19:57;101977.31;;;11.98;nan
63347;BME280;49472;49.880;8.650;2023-02-11T13:22:33;101984.66;;;11.50;nan
63347;BME280;49472;49.880;8.650;2023-02-11T13:27:43;101979.72;;;11.64;nan
63347;BME280;49472;49.880;8.650;2023-02-11T13:30:29;101976.66;;;12.46;nan
63347;BME280;49472;49.880;8.650;2023-02-11T13:35:39;101978.19;;;12.33;nan
63347;BME280;49472;49.880;8.650;2023-02-11T13:38:20;101969.22;;;12.24;nan
63347;BME280;49472;49.880;8.650;2023-02-11T13:41:02;101970.09;;;12.06;nan
63347;BME280;49472;49.880;8.650;2023-02-11T13:43:30;101967.16;;;12.13;nan
63347;BME280;49472;49.880;8.650;2023-02-11T13:46:02;101962.72;;;12.17;nan
63347;BME280;49472;49.880;8.650;2023-02-11T13:48:31;101956.91;;;11.96;nan
63347;BME280;49472;49.880;8.650;2023-02-11T13:51:18;101949.91;;;12.17;nan
63347;BME280;49472;49.880;8.650;2023-02-11T13:53:57;101959.47;;;11.96;nan
63347;BME280;49472;49.880;8.650;2023-02-11T13:58:57;101967.47;;;12.07;nan
63347;BME280;49472;49.880;8.650;2023-02-11T14:13:32;101962.84;;;12.49;nan
63347;BME280;49472;49.880;8.650;2023-02-11T14:16:12;101971.19;;;12.19;nan
63347;BME280;49472;49.880;8.650;2023-02-11T14:40:27;101980.72;;;11.79;nan
63347;BME280;49472;49.880;8.650;2023-02-11T14:42:54;101987.44;;;11.82;nan
63347;BME280;49472;49.880;8.650;2023-02-11T14:45:24;101986.00;;;11.57;nan
63347;BME280;49472;49.880;8.650;2023-02-11T14:48:16;101985.19;;;11.76;nan
63347;BME280;49472;49.880;8.650;2023-02-11T14:50:51;101998.50;;;11.46;nan
63347;BME280;49472;49.880;8.650;2023-02-11T14:53:20;101992.59;;;11.44;nan
63347;BME280;49472;49.880;8.650;2023-02-11T14:55:48;101994.88;;;11.31;nan
63347;BME280;49472;49.880;8.650;2023-02-11T15:05:59;101994.34;;;12.35;nan
63347;BME280;49472;49.880;8.650;2023-02-11T15:08:25;102001.16;;;12.00;nan
63347;BME280;49472;49.880;8.650;2023-02-11T15:10:52;101996.06;;;12.17;nan
63347;BME280;49472;49.880;8.650;2023-02-11T15:13:21;101996.75;;;11.65;nan
63347;BME280;49472;49.880;8.650;2023-02-11T15:15:54;101992.53;;;11.64;nan
63347;BME280;49472;49.880;8.650;2023-02-11T15:18:23;101999.66;;;11.77;nan
63347;BME280;49472;49.880;8.650;2023-02-11T15:20:52;102005.88;;;11.52;nan
63347;BME280;49472;49.880;8.650;2023-02-11T15:23:26;101998.13;;;11.72;nan
63347;BME280;49472;49.880;8.650;2023-02-11T15:25:52;101998.53;;;12.01;nan
63347;BME280;49472;49.880;8.650;2023-02-11T15:28:26;102004.41;;;11.84;nan
63347;BME280;49472;49.880;8.650;2023-02-11T15:31:14;102007.78;;;11.86;nan
63347;BME280;49472;49.880;8.650;2023-02-11T15:33:40;102009.28;;;11.71;nan
63347;BME280;49472;49.880;8.650;2023-02-11T15:36:06;102015.50;;;11.47;nan
63347;BME280;49472;49.880;8.650;2023-02-11T15:38:31;101999.69;;;11.75;nan
63347;BME280;49472;49.880;8.650;2023-02-11T15:40:59;102009.84;;;11.59;nan
63347;BME280;49472;49.880;8.650;2023-02-11T15:43:46;102012.13;;;11.27;nan
63347;BME280;49472;49.880;8.650;2023-02-11T15:46:15;102021.25;;;11.33;nan
63347;BME280;49472;49.880;8.650;2023-02-11T15:48:46;102010.88;;;11.17;nan
63347;BME280;49472;49.880;8.650;2023-02-11T15:51:28;102016.28;;;11.30;nan
63347;BME280;49472;49.880;8.650;2023-02-11T15:54:03;102021.25;;;11.33;nan
63347;BME280;49472;49.880;8.650;2023-02-11T15:56:30;102021.25;;;11.33;nan
63347;BME280;49472;49.880;8.650;2023-02-11T15:59:30;102021.81;;;11.40;nan
63347;BME280;49472;49.880;8.650;2023-02-11T16:02:07;102023.06;;;11.88;nan
63347;BME280;49472;49.880;8.650;2023-02-11T16:04:34;102023.63;;;11.38;nan
63347;BME280;49472;49.880;8.650;2023-02-11T16:07:00;102033.47;;;11.07;nan
63347;BME280;49472;49.880;8.650;2023-02-11T16:09:34;102023.03;;;11.31;nan